sensor_id;sensor_type;location;lat;lon;timestamp;temperature;humidity
10312;DHT22;5201;48.776;9.128;2023-07-13T00:02:00;22.10;96.60
10312;DHT22;5201;48.776;9.128;2023-07-13T00:04:26;22.30;95.90
10312;DHT22;5201;48.776;9.128;2023-07-13T00:06:52;22.00;95.60
10312;DHT22;5201;48.776;9.128;2023-07-13T00:09:19;22.00;96.00
10312;DHT22;5201;48.776;9.128;2023-07-13T00:11:45;21.90;96.40
10312;DHT22;5201;48.776;9.128;2023-07-13T00:14:13;21.90;96.00
10312;DHT22;5201;48.776;9.128;2023-07-13T00:16:41;21.90;95.50
10312;DHT22;5201;48.776;9.128;2023-07-13T00:19:09;21.80;95.60
10312;DHT22;5201;48.776;9.128;2023-07-13T00:21:35;21.80;96.00
10312;DHT22;5201;48.776;9.128;2023-07-13T00:24:01;21.70;96.30
10312;DHT22;5201;48.776;9.128;2023-07-13T00:26:27;21.70;96.00
10312;DHT22;5201;48.776;9.128;2023-07-13T00:28:52;21.70;95.80
10312;DHT22;5201;48.776;9.128;2023-07-13T00:31:18;21.70;95.50
10312;DHT22;5201;48.776;9.128;2023-07-13T00:33:44;21.70;95.20
10312;DHT22;5201;48.776;9.128;2023-07-13T00:36:10;21.70;95.70
10312;DHT22;5201;48.776;9.128;2023-07-13T00:38:36;21.70;95.70
10312;DHT22;5201;48.776;9.128;2023-07-13T00:41:03;21.70;96.10
10312;DHT22;5201;48.776;9.128;2023-07-13T00:43:29;21.90;96.30
10312;DHT22;5201;48.776;9.128;2023-07-13T00:48:31;21.60;96.00
10312;DHT22;5201;48.776;9.128;2023-07-13T00:50:59;21.60;96.00
10312;DHT22;5201;48.776;9.128;2023-07-13T00:53:27;21.50;95.70
10312;DHT22;5201;48.776;9.128;2023-07-13T00:55:55;21.50;96.00
10312;DHT22;5201;48.776;9.128;2023-07-13T00:58:22;21.50;95.10
10312;DHT22;5201;48.776;9.128;2023-07-13T01:00:48;21.50;95.90
10312;DHT22;5201;48.776;9.128;2023-07-13T01:03:15;21.50;95.80
10312;DHT22;5201;48.776;9.128;2023-07-13T01:05:40;21.50;95.50
10312;DHT22;5201;48.776;9.128;2023-07-13T01:08:07;21.50;95.50
10312;DHT22;5201;48.776;9.128;2023-07-13T01:10:33;21.50;95.70
10312;DHT22;5201;48.776;9.128;2023-07-13T01:13:05;21.50;95.60
10312;DHT22;5201;48.776;9.128;2023-07-13T01:15:43;21.50;95.50
10312;DHT22;5201;48.776;9.128;2023-07-13T01:18:15;21.50;95.40
10312;DHT22;5201;48.776;9.128;2023-07-13T01:20:52;21.50;96.10
10312;DHT22;5201;48.776;9.128;2023-07-13T01:23:18;21.40;96.30
10312;DHT22;5201;48.776;9.128;2023-07-13T01:25:44;21.80;96.30
10312;DHT22;5201;48.776;9.128;2023-07-13T01:28:10;21.40;96.10
10312;DHT22;5201;48.776;9.128;2023-07-13T01:30:36;21.80;96.70
10312;DHT22;5201;48.776;9.128;2023-07-13T01:33:03;21.30;95.90
10312;DHT22;5201;48.776;9.128;2023-07-13T01:35:29;21.30;94.80
10312;DHT22;5201;48.776;9.128;2023-07-13T01:37:55;21.20;95.70
10312;DHT22;5201;48.776;9.128;2023-07-13T01:40:22;21.20;96.10
10312;DHT22;5201;48.776;9.128;2023-07-13T01:42:48;21.20;95.40
10312;DHT22;5201;48.776;9.128;2023-07-13T01:45:13;21.10;95.70
10312;DHT22;5201;48.776;9.128;2023-07-13T01:47:40;21.10;96.00
10312;DHT22;5201;48.776;9.128;2023-07-13T01:50:05;21.20;96.60
10312;DHT22;5201;48.776;9.128;2023-07-13T01:52:31;21.00;95.70
10312;DHT22;5201;48.776;9.128;2023-07-13T01:54:57;21.00;96.10
10312;DHT22;5201;48.776;9.128;2023-07-13T01:57:22;20.90;96.20
10312;DHT22;5201;48.776;9.128;2023-07-13T01:59:48;20.90;95.80
10312;DHT22;5201;48.776;9.128;2023-07-13T02:02:13;20.80;96.40
10312;DHT22;5201;48.776;9.128;2023-07-13T02:04:39;20.60;96.60
10312;DHT22;5201;48.776;9.128;2023-07-13T02:07:05;20.70;96.50
10312;DHT22;5201;48.776;9.128;2023-07-13T02:09:31;20.70;96.00
10312;DHT22;5201;48.776;9.128;2023-07-13T02:11:56;20.70;95.90
10312;DHT22;5201;48.776;9.128;2023-07-13T02:14:22;20.60;95.60
10312;DHT22;5201;48.776;9.128;2023-07-13T02:16:48;20.60;96.30
10312;DHT22;5201;48.776;9.128;2023-07-13T02:19:14;20.60;96.20
10312;DHT22;5201;48.776;9.128;2023-07-13T02:21:39;20.60;95.90
10312;DHT22;5201;48.776;9.128;2023-07-13T02:24:05;20.50;96.60
10312;DHT22;5201;48.776;9.128;2023-07-13T02:26:30;20.50;96.60
10312;DHT22;5201;48.776;9.128;2023-07-13T02:28:56;18.90;96.10
10312;DHT22;5201;48.776;9.128;2023-07-13T02:31:22;20.50;97.00
10312;DHT22;5201;48.776;9.128;2023-07-13T02:33:47;20.70;97.10
10312;DHT22;5201;48.776;9.128;2023-07-13T02:36:13;20.40;97.00
10312;DHT22;5201;48.776;9.128;2023-07-13T02:38:41;20.40;96.30
10312;DHT22;5201;48.776;9.128;2023-07-13T02:41:08;20.30;97.50
10312;DHT22;5201;48.776;9.128;2023-07-13T02:43:34;20.30;96.50
10312;DHT22;5201;48.776;9.128;2023-07-13T02:46:01;20.50;96.50
10312;DHT22;5201;48.776;9.128;2023-07-13T02:48:36;20.50;96.50
10312;DHT22;5201;48.776;9.128;2023-07-13T02:51:02;20.40;96.50
10312;DHT22;5201;48.776;9.128;2023-07-13T02:53:28;20.30;97.30
10312;DHT22;5201;48.776;9.128;2023-07-13T02:55:53;20.30;97.10
10312;DHT22;5201;48.776;9.128;2023-07-13T02:58:19;20.10;98.30
10312;DHT22;5201;48.776;9.128;2023-07-13T03:00:46;20.10;98.70
10312;DHT22;5201;48.776;9.128;2023-07-13T03:03:13;20.00;98.80
10312;DHT22;5201;48.776;9.128;2023-07-13T03:05:41;19.90;98.80
10312;DHT22;5201;48.776;9.128;2023-07-13T03:08:11;19.90;98.90
10312;DHT22;5201;48.776;9.128;2023-07-13T03:10:37;19.90;98.90
10312;DHT22;5201;48.776;9.128;2023-07-13T03:13:03;19.80;98.80
10312;DHT22;5201;48.776;9.128;2023-07-13T03:15:29;20.10;98.90
10312;DHT22;5201;48.776;9.128;2023-07-13T03:17:54;19.80;98.80
10312;DHT22;5201;48.776;9.128;2023-07-13T03:20:20;19.90;99.30
10312;DHT22;5201;48.776;9.128;2023-07-13T03:22:46;19.80;99.50
10312;DHT22;5201;48.776;9.128;2023-07-13T03:25:12;19.90;99.30
10312;DHT22;5201;48.776;9.128;2023-07-13T03:27:38;19.90;99.50
10312;DHT22;5201;48.776;9.128;2023-07-13T03:30:04;19.80;99.60
10312;DHT22;5201;48.776;9.128;2023-07-13T03:32:30;19.70;99.60
10312;DHT22;5201;48.776;9.128;2023-07-13T03:34:56;19.70;99.40
10312;DHT22;5201;48.776;9.128;2023-07-13T03:37:22;20.20;99.90
10312;DHT22;5201;48.776;9.128;2023-07-13T03:39:47;19.80;99.90
10312;DHT22;5201;48.776;9.128;2023-07-13T03:42:13;19.80;99.70
10312;DHT22;5201;48.776;9.128;2023-07-13T03:44:40;19.80;99.50
10312;DHT22;5201;48.776;9.128;2023-07-13T03:47:05;19.80;99.50
10312;DHT22;5201;48.776;9.128;2023-07-13T03:49:31;19.80;99.90
10312;DHT22;5201;48.776;9.128;2023-07-13T03:51:57;19.80;99.60
10312;DHT22;5201;48.776;9.128;2023-07-13T03:54:23;20.20;99.90
10312;DHT22;5201;48.776;9.128;2023-07-13T03:56:49;19.70;99.90
10312;DHT22;5201;48.776;9.128;2023-07-13T03:59:14;19.70;99.90
10312;DHT22;5201;48.776;9.128;2023-07-13T04:01:40;19.90;99.90
10312;DHT22;5201;48.776;9.128;2023-07-13T04:04:06;20.20;99.90
10312;DHT22;5201;48.776;9.128;2023-07-13T04:06:32;19.80;99.90
10312;DHT22;5201;48.776;9.128;2023-07-13T04:09:00;20.10;99.90
10312;DHT22;5201;48.776;9.128;2023-07-13T04:11:28;19.80;99.90
10312;DHT22;5201;48.776;9.128;2023-07-13T04:13:54;19.80;99.90
10312;DHT22;5201;48.776;9.128;2023-07-13T04:16:20;19.90;99.90
10312;DHT22;5201;48.776;9.128;2023-07-13T04:18:46;19.90;99.90
10312;DHT22;5201;48.776;9.128;2023-07-13T04:21:14;20.00;99.90
10312;DHT22;5201;48.776;9.128;2023-07-13T04:23:39;19.90;99.90
10312;DHT22;5201;48.776;9.128;2023-07-13T04:26:06;20.30;99.90
10312;DHT22;5201;48.776;9.128;2023-07-13T04:28:32;19.90;99.90
10312;DHT22;5201;48.776;9.128;2023-07-13T04:30:59;20.10;99.90
10312;DHT22;5201;48.776;9.128;2023-07-13T04:33:27;20.00;99.80
10312;DHT22;5201;48.776;9.128;2023-07-13T04:35:54;19.90;99.90
10312;DHT22;5201;48.776;9.128;2023-07-13T04:38:27;20.00;99.90
10312;DHT22;5201;48.776;9.128;2023-07-13T04:40:59;19.90;99.90
10312;DHT22;5201;48.776;9.128;2023-07-13T04:43:26;19.90;99.90
10312;DHT22;5201;48.776;9.128;2023-07-13T04:45:52;19.80;99.90
10312;DHT22;5201;48.776;9.128;2023-07-13T04:48:18;19.80;99.90
10312;DHT22;5201;48.776;9.128;2023-07-13T04:50:45;19.80;99.90
10312;DHT22;5201;48.776;9.128;2023-07-13T04:53:11;19.80;99.90
10312;DHT22;5201;48.776;9.128;2023-07-13T04:55:37;19.70;99.90
10312;DHT22;5201;48.776;9.128;2023-07-13T04:58:03;19.80;99.60
10312;DHT22;5201;48.776;9.128;2023-07-13T05:00:29;19.70;99.90
10312;DHT22;5201;48.776;9.128;2023-07-13T05:02:56;19.80;99.90
10312;DHT22;5201;48.776;9.128;2023-07-13T05:05:26;19.80;99.90
10312;DHT22;5201;48.776;9.128;2023-07-13T05:07:52;19.90;99.90
10312;DHT22;5201;48.776;9.128;2023-07-13T05:10:19;20.00;99.90
10312;DHT22;5201;48.776;9.128;2023-07-13T05:12:44;20.00;99.70
10312;DHT22;5201;48.776;9.128;2023-07-13T05:15:10;20.10;99.50
10312;DHT22;5201;48.776;9.128;2023-07-13T05:17:36;20.10;99.90
10312;DHT22;5201;48.776;9.128;2023-07-13T05:20:02;20.20;99.50
10312;DHT22;5201;48.776;9.128;2023-07-13T05:22:27;20.30;99.90
10312;DHT22;5201;48.776;9.128;2023-07-13T05:24:53;20.40;99.80
10312;DHT22;5201;48.776;9.128;2023-07-13T05:27:19;20.50;99.90
10312;DHT22;5201;48.776;9.128;2023-07-13T05:29:44;20.50;99.90
10312;DHT22;5201;48.776;9.128;2023-07-13T05:32:10;20.60;99.00
10312;DHT22;5201;48.776;9.128;2023-07-13T05:34:35;20.60;98.80
10312;DHT22;5201;48.776;9.128;2023-07-13T05:37:01;20.60;99.00
10312;DHT22;5201;48.776;9.128;2023-07-13T05:39:26;20.60;98.50
10312;DHT22;5201;48.776;9.128;2023-07-13T05:41:53;20.70;98.90
10312;DHT22;5201;48.776;9.128;2023-07-13T05:44:18;20.70;98.60
10312;DHT22;5201;48.776;9.128;2023-07-13T05:46:44;21.50;98.20
10312;DHT22;5201;48.776;9.128;2023-07-13T05:49:10;21.00;98.00
10312;DHT22;5201;48.776;9.128;2023-07-13T05:51:36;20.80;97.70
10312;DHT22;5201;48.776;9.128;2023-07-13T05:54:02;20.80;97.90
10312;DHT22;5201;48.776;9.128;2023-07-13T05:56:27;20.70;98.70
10312;DHT22;5201;48.776;9.128;2023-07-13T05:58:53;20.70;98.50
10312;DHT22;5201;48.776;9.128;2023-07-13T06:01:18;20.70;98.60
10312;DHT22;5201;48.776;9.128;2023-07-13T06:03:46;20.70;98.70
10312;DHT22;5201;48.776;9.128;2023-07-13T06:06:12;20.70;98.70
10312;DHT22;5201;48.776;9.128;2023-07-13T06:08:38;20.80;99.40
10312;DHT22;5201;48.776;9.128;2023-07-13T06:11:05;21.10;98.80
10312;DHT22;5201;48.776;9.128;2023-07-13T06:13:31;21.60;97.60
10312;DHT22;5201;48.776;9.128;2023-07-13T06:15:56;22.00;97.00
10312;DHT22;5201;48.776;9.128;2023-07-13T06:18:22;22.30;97.50
10312;DHT22;5201;48.776;9.128;2023-07-13T06:20:48;22.80;96.70
10312;DHT22;5201;48.776;9.128;2023-07-13T06:23:13;23.40;95.10
10312;DHT22;5201;48.776;9.128;2023-07-13T06:25:40;23.70;93.70
10312;DHT22;5201;48.776;9.128;2023-07-13T06:28:05;23.90;94.60
10312;DHT22;5201;48.776;9.128;2023-07-13T06:30:31;24.10;94.30
10312;DHT22;5201;48.776;9.128;2023-07-13T06:32:57;24.00;93.70
10312;DHT22;5201;48.776;9.128;2023-07-13T06:35:23;24.00;93.00
10312;DHT22;5201;48.776;9.128;2023-07-13T06:37:48;24.10;94.20
10312;DHT22;5201;48.776;9.128;2023-07-13T06:40:14;24.30;94.80
10312;DHT22;5201;48.776;9.128;2023-07-13T06:42:40;24.60;94.40
10312;DHT22;5201;48.776;9.128;2023-07-13T06:45:06;24.70;92.90
10312;DHT22;5201;48.776;9.128;2023-07-13T06:47:31;24.90;93.30
10312;DHT22;5201;48.776;9.128;2023-07-13T06:49:57;24.90;93.10
10312;DHT22;5201;48.776;9.128;2023-07-13T06:52:23;24.80;92.60
10312;DHT22;5201;48.776;9.128;2023-07-13T06:54:48;24.60;92.80
10312;DHT22;5201;48.776;9.128;2023-07-13T06:57:14;24.60;91.60
10312;DHT22;5201;48.776;9.128;2023-07-13T06:59:39;24.50;92.10
10312;DHT22;5201;48.776;9.128;2023-07-13T07:02:06;24.60;92.10
10312;DHT22;5201;48.776;9.128;2023-07-13T07:04:31;24.70;91.50
10312;DHT22;5201;48.776;9.128;2023-07-13T07:06:58;24.80;92.10
10312;DHT22;5201;48.776;9.128;2023-07-13T07:09:23;25.00;92.20
10312;DHT22;5201;48.776;9.128;2023-07-13T07:11:49;25.10;90.40
10312;DHT22;5201;48.776;9.128;2023-07-13T07:14:15;25.20;90.40
10312;DHT22;5201;48.776;9.128;2023-07-13T07:16:41;25.30;90.40
10312;DHT22;5201;48.776;9.128;2023-07-13T07:19:06;25.40;91.20
10312;DHT22;5201;48.776;9.128;2023-07-13T07:21:32;25.20;90.60
10312;DHT22;5201;48.776;9.128;2023-07-13T07:23:57;25.30;91.20
10312;DHT22;5201;48.776;9.128;2023-07-13T07:26:25;25.40;91.00
10312;DHT22;5201;48.776;9.128;2023-07-13T07:28:50;25.50;89.20
10312;DHT22;5201;48.776;9.128;2023-07-13T07:31:16;25.60;90.70
10312;DHT22;5201;48.776;9.128;2023-07-13T07:33:42;25.70;90.00
10312;DHT22;5201;48.776;9.128;2023-07-13T07:36:08;25.90;90.20
10312;DHT22;5201;48.776;9.128;2023-07-13T07:38:34;26.00;88.30
10312;DHT22;5201;48.776;9.128;2023-07-13T07:41:03;26.10;89.40
10312;DHT22;5201;48.776;9.128;2023-07-13T07:43:29;26.30;87.20
10312;DHT22;5201;48.776;9.128;2023-07-13T07:45:56;26.40;85.60
10312;DHT22;5201;48.776;9.128;2023-07-13T07:48:22;26.60;85.30
10312;DHT22;5201;48.776;9.128;2023-07-13T07:50:48;26.60;87.00
10312;DHT22;5201;48.776;9.128;2023-07-13T07:53:14;26.60;86.00
10312;DHT22;5201;48.776;9.128;2023-07-13T07:55:39;26.60;86.80
10312;DHT22;5201;48.776;9.128;2023-07-13T07:58:05;26.60;87.50
10312;DHT22;5201;48.776;9.128;2023-07-13T08:00:31;26.50;83.90
10312;DHT22;5201;48.776;9.128;2023-07-13T08:02:58;26.60;85.90
10312;DHT22;5201;48.776;9.128;2023-07-13T08:05:24;26.70;86.20
10312;DHT22;5201;48.776;9.128;2023-07-13T08:07:50;26.80;87.30
10312;DHT22;5201;48.776;9.128;2023-07-13T08:10:16;26.90;86.30
10312;DHT22;5201;48.776;9.128;2023-07-13T08:12:42;26.90;85.60
10312;DHT22;5201;48.776;9.128;2023-07-13T08:15:11;26.90;85.60
10312;DHT22;5201;48.776;9.128;2023-07-13T08:17:37;26.90;85.90
10312;DHT22;5201;48.776;9.128;2023-07-13T08:20:03;26.80;83.30
10312;DHT22;5201;48.776;9.128;2023-07-13T08:22:29;26.90;84.10
10312;DHT22;5201;48.776;9.128;2023-07-13T08:24:55;26.80;82.80
10312;DHT22;5201;48.776;9.128;2023-07-13T08:27:22;26.90;84.90
10312;DHT22;5201;48.776;9.128;2023-07-13T08:29:48;26.80;83.90
10312;DHT22;5201;48.776;9.128;2023-07-13T08:32:14;27.00;83.40
10312;DHT22;5201;48.776;9.128;2023-07-13T08:34:40;27.00;84.40
10312;DHT22;5201;48.776;9.128;2023-07-13T08:37:06;27.10;87.90
10312;DHT22;5201;48.776;9.128;2023-07-13T08:39:33;27.20;84.90
10312;DHT22;5201;48.776;9.128;2023-07-13T08:42:07;27.40;83.10
10312;DHT22;5201;48.776;9.128;2023-07-13T08:45:39;27.40;82.90
10312;DHT22;5201;48.776;9.128;2023-07-13T08:47:33;27.20;81.80
10312;DHT22;5201;48.776;9.128;2023-07-13T08:50:01;27.20;82.00
10312;DHT22;5201;48.776;9.128;2023-07-13T08:52:36;27.30;84.00
10312;DHT22;5201;48.776;9.128;2023-07-13T08:55:14;27.50;85.10
10312;DHT22;5201;48.776;9.128;2023-07-13T08:57:42;27.70;82.20
10312;DHT22;5201;48.776;9.128;2023-07-13T09:00:12;27.80;83.00
10312;DHT22;5201;48.776;9.128;2023-07-13T09:02:58;28.10;81.80
10312;DHT22;5201;48.776;9.128;2023-07-13T09:10:32;27.50;83.10
10312;DHT22;5201;48.776;9.128;2023-07-13T09:15:41;28.00;82.10
10312;DHT22;5201;48.776;9.128;2023-07-13T09:18:10;28.00;81.10
10312;DHT22;5201;48.776;9.128;2023-07-13T09:20:49;28.10;80.70
10312;DHT22;5201;48.776;9.128;2023-07-13T09:23:19;28.00;81.50
10312;DHT22;5201;48.776;9.128;2023-07-13T09:25:47;28.10;81.80
10312;DHT22;5201;48.776;9.128;2023-07-13T09:28:23;27.80;80.20
10312;DHT22;5201;48.776;9.128;2023-07-13T09:30:53;27.50;81.10
10312;DHT22;5201;48.776;9.128;2023-07-13T09:33:22;27.30;81.90
10312;DHT22;5201;48.776;9.128;2023-07-13T09:35:48;27.40;81.20
10312;DHT22;5201;48.776;9.128;2023-07-13T09:38:17;27.80;77.70
10312;DHT22;5201;48.776;9.128;2023-07-13T09:43:26;28.20;79.70
10312;DHT22;5201;48.776;9.128;2023-07-13T09:45:55;28.50;78.70
10312;DHT22;5201;48.776;9.128;2023-07-13T09:48:21;28.50;76.90
10312;DHT22;5201;48.776;9.128;2023-07-13T09:50:47;28.40;76.60
10312;DHT22;5201;48.776;9.128;2023-07-13T09:53:18;28.30;78.90
10312;DHT22;5201;48.776;9.128;2023-07-13T09:55:45;28.10;80.40
10312;DHT22;5201;48.776;9.128;2023-07-13T09:58:17;27.90;78.90
10312;DHT22;5201;48.776;9.128;2023-07-13T10:01:01;27.80;78.30
10312;DHT22;5201;48.776;9.128;2023-07-13T10:03:32;28.20;77.60
10312;DHT22;5201;48.776;9.128;2023-07-13T10:06:17;28.50;76.30
10312;DHT22;5201;48.776;9.128;2023-07-13T10:08:45;28.60;75.90
10312;DHT22;5201;48.776;9.128;2023-07-13T10:14:00;28.60;77.20
10312;DHT22;5201;48.776;9.128;2023-07-13T10:16:33;28.60;78.20
10312;DHT22;5201;48.776;9.128;2023-07-13T10:19:21;28.90;77.80
10312;DHT22;5201;48.776;9.128;2023-07-13T10:21:53;28.90;78.80
10312;DHT22;5201;48.776;9.128;2023-07-13T10:24:22;29.20;77.90
10312;DHT22;5201;48.776;9.128;2023-07-13T10:26:56;29.50;76.30
10312;DHT22;5201;48.776;9.128;2023-07-13T10:29:26;29.60;73.60
10312;DHT22;5201;48.776;9.128;2023-07-13T10:31:53;29.40;73.10
10312;DHT22;5201;48.776;9.128;2023-07-13T10:34:18;29.10;71.70
10312;DHT22;5201;48.776;9.128;2023-07-13T10:36:47;28.70;72.50
10312;DHT22;5201;48.776;9.128;2023-07-13T10:39:19;28.50;76.00
10312;DHT22;5201;48.776;9.128;2023-07-13T10:41:53;28.30;76.50
10312;DHT22;5201;48.776;9.128;2023-07-13T10:44:27;27.90;76.50
10312;DHT22;5201;48.776;9.128;2023-07-13T10:46:58;27.50;76.80
10312;DHT22;5201;48.776;9.128;2023-07-13T10:49:27;27.30;78.40
10312;DHT22;5201;48.776;9.128;2023-07-13T10:51:53;27.10;78.30
10312;DHT22;5201;48.776;9.128;2023-07-13T10:54:21;27.20;78.60
10312;DHT22;5201;48.776;9.128;2023-07-13T10:57:36;27.20;78.20
10312;DHT22;5201;48.776;9.128;2023-07-13T10:59:37;27.20;78.00
10312;DHT22;5201;48.776;9.128;2023-07-13T11:04:39;27.40;77.30
10312;DHT22;5201;48.776;9.128;2023-07-13T11:07:18;27.70;78.20
10312;DHT22;5201;48.776;9.128;2023-07-13T11:09:50;27.70;78.40
10312;DHT22;5201;48.776;9.128;2023-07-13T11:17:47;27.50;77.90
10312;DHT22;5201;48.776;9.128;2023-07-13T11:25:28;27.40;76.90
10312;DHT22;5201;48.776;9.128;2023-07-13T11:28:05;27.30;77.00
10312;DHT22;5201;48.776;9.128;2023-07-13T11:30:36;27.60;78.90
10312;DHT22;5201;48.776;9.128;2023-07-13T11:33:24;28.00;78.20
10312;DHT22;5201;48.776;9.128;2023-07-13T11:36:06;28.40;75.40
10312;DHT22;5201;48.776;9.128;2023-07-13T11:38:38;28.70;77.20
10312;DHT22;5201;48.776;9.128;2023-07-13T11:41:07;28.90;76.80
10312;DHT22;5201;48.776;9.128;2023-07-13T11:43:37;28.90;74.00
10312;DHT22;5201;48.776;9.128;2023-07-13T11:46:25;28.70;73.20
10312;DHT22;5201;48.776;9.128;2023-07-13T11:48:52;28.30;75.20
10312;DHT22;5201;48.776;9.128;2023-07-13T11:51:30;27.90;75.00
10312;DHT22;5201;48.776;9.128;2023-07-13T11:53:59;27.50;75.70
10312;DHT22;5201;48.776;9.128;2023-07-13T11:56:25;27.30;77.90
10312;DHT22;5201;48.776;9.128;2023-07-13T11:58:53;27.20;79.40
10312;DHT22;5201;48.776;9.128;2023-07-13T12:01:29;27.50;80.70
10312;DHT22;5201;48.776;9.128;2023-07-13T12:04:02;27.80;79.70
10312;DHT22;5201;48.776;9.128;2023-07-13T12:06:30;28.00;76.90
10312;DHT22;5201;48.776;9.128;2023-07-13T12:08:59;28.30;75.20
10312;DHT22;5201;48.776;9.128;2023-07-13T12:11:26;28.50;75.20
10312;DHT22;5201;48.776;9.128;2023-07-13T12:13:52;28.70;75.00
10312;DHT22;5201;48.776;9.128;2023-07-13T12:16:29;28.60;73.90
10312;DHT22;5201;48.776;9.128;2023-07-13T12:18:56;28.30;74.70
10312;DHT22;5201;48.776;9.128;2023-07-13T12:21:36;28.20;74.70
10312;DHT22;5201;48.776;9.128;2023-07-13T12:24:03;27.90;74.80
10312;DHT22;5201;48.776;9.128;2023-07-13T12:26:30;27.50;75.40
10312;DHT22;5201;48.776;9.128;2023-07-13T12:28:57;27.40;75.90
10312;DHT22;5201;48.776;9.128;2023-07-13T12:34:06;27.30;75.30
10312;DHT22;5201;48.776;9.128;2023-07-13T12:36:37;27.30;76.90
10312;DHT22;5201;48.776;9.128;2023-07-13T12:39:43;27.10;75.10
10312;DHT22;5201;48.776;9.128;2023-07-13T12:44:57;27.00;74.80
10312;DHT22;5201;48.776;9.128;2023-07-13T12:47:24;26.90;76.00
10312;DHT22;5201;48.776;9.128;2023-07-13T12:49:54;27.00;75.20
10312;DHT22;5201;48.776;9.128;2023-07-13T12:52:23;26.90;76.40
10312;DHT22;5201;48.776;9.128;2023-07-13T12:54:58;27.00;75.10
10312;DHT22;5201;48.776;9.128;2023-07-13T12:57:25;27.10;75.50
10312;DHT22;5201;48.776;9.128;2023-07-13T12:59:55;27.20;77.00
10312;DHT22;5201;48.776;9.128;2023-07-13T13:02:28;27.10;77.20
10312;DHT22;5201;48.776;9.128;2023-07-13T13:04:55;27.10;75.70
10312;DHT22;5201;48.776;9.128;2023-07-13T13:07:23;27.00;75.20
10312;DHT22;5201;48.776;9.128;2023-07-13T13:09:48;27.00;74.90
10312;DHT22;5201;48.776;9.128;2023-07-13T13:12:14;26.80;75.60
10312;DHT22;5201;48.776;9.128;2023-07-13T13:14:40;26.70;74.20
10312;DHT22;5201;48.776;9.128;2023-07-13T13:17:23;26.70;74.60
10312;DHT22;5201;48.776;9.128;2023-07-13T13:19:51;26.50;74.30
10312;DHT22;5201;48.776;9.128;2023-07-13T13:22:19;26.50;75.00
10312;DHT22;5201;48.776;9.128;2023-07-13T13:24:45;26.60;77.40
10312;DHT22;5201;48.776;9.128;2023-07-13T13:27:19;26.60;74.60
10312;DHT22;5201;48.776;9.128;2023-07-13T13:29:46;26.50;75.00
10312;DHT22;5201;48.776;9.128;2023-07-13T13:32:13;26.50;73.80
10312;DHT22;5201;48.776;9.128;2023-07-13T13:34:39;26.30;74.20
10312;DHT22;5201;48.776;9.128;2023-07-13T13:37:21;26.30;75.80
10312;DHT22;5201;48.776;9.128;2023-07-13T13:39:47;26.20;75.70
10312;DHT22;5201;48.776;9.128;2023-07-13T13:42:13;26.20;74.60
10312;DHT22;5201;48.776;9.128;2023-07-13T13:44:39;26.20;76.50
10312;DHT22;5201;48.776;9.128;2023-07-13T13:47:28;25.70;74.30
10312;DHT22;5201;48.776;9.128;2023-07-13T13:49:54;26.20;73.40
10312;DHT22;5201;48.776;9.128;2023-07-13T13:52:20;26.10;73.40
10312;DHT22;5201;48.776;9.128;2023-07-13T13:54:46;26.20;76.90
10312;DHT22;5201;48.776;9.128;2023-07-13T13:57:11;26.40;75.70
10312;DHT22;5201;48.776;9.128;2023-07-13T13:59:38;26.50;75.40
10312;DHT22;5201;48.776;9.128;2023-07-13T14:02:26;26.70;75.20
10312;DHT22;5201;48.776;9.128;2023-07-13T14:05:01;26.80;75.10
10312;DHT22;5201;48.776;9.128;2023-07-13T14:07:27;27.00;73.00
10312;DHT22;5201;48.776;9.128;2023-07-13T14:09:57;26.80;76.30
10312;DHT22;5201;48.776;9.128;2023-07-13T14:12:23;26.80;75.20
10312;DHT22;5201;48.776;9.128;2023-07-13T14:14:51;26.80;74.70
10312;DHT22;5201;48.776;9.128;2023-07-13T14:17:22;26.70;75.20
10312;DHT22;5201;48.776;9.128;2023-07-13T14:19:50;26.60;75.60
10312;DHT22;5201;48.776;9.128;2023-07-13T14:22:17;26.60;75.90
10312;DHT22;5201;48.776;9.128;2023-07-13T14:24:43;26.60;76.90
10312;DHT22;5201;48.776;9.128;2023-07-13T14:27:11;26.70;75.10
10312;DHT22;5201;48.776;9.128;2023-07-13T14:29:37;26.70;75.70
10312;DHT22;5201;48.776;9.128;2023-07-13T14:32:02;26.80;76.00
10312;DHT22;5201;48.776;9.128;2023-07-13T14:34:30;26.80;75.40
10312;DHT22;5201;48.776;9.128;2023-07-13T14:36:55;26.80;75.90
10312;DHT22;5201;48.776;9.128;2023-07-13T14:39:24;26.70;74.20
10312;DHT22;5201;48.776;9.128;2023-07-13T14:41:51;26.70;74.10
10312;DHT22;5201;48.776;9.128;2023-07-13T14:44:22;26.70;75.10
10312;DHT22;5201;48.776;9.128;2023-07-13T14:46:48;26.70;75.20
10312;DHT22;5201;48.776;9.128;2023-07-13T14:49:36;26.60;74.50
10312;DHT22;5201;48.776;9.128;2023-07-13T14:54:36;26.40;75.00
10312;DHT22;5201;48.776;9.128;2023-07-13T14:57:09;26.30;74.90
10312;DHT22;5201;48.776;9.128;2023-07-13T14:59:35;26.20;76.70
10312;DHT22;5201;48.776;9.128;2023-07-13T15:02:01;26.10;75.10
10312;DHT22;5201;48.776;9.128;2023-07-13T15:04:27;26.00;75.20
10312;DHT22;5201;48.776;9.128;2023-07-13T15:07:02;26.00;76.50
10312;DHT22;5201;48.776;9.128;2023-07-13T15:09:28;26.00;75.80
10312;DHT22;5201;48.776;9.128;2023-07-13T15:11:58;26.10;77.60
10312;DHT22;5201;48.776;9.128;2023-07-13T15:14:24;26.10;77.40
10312;DHT22;5201;48.776;9.128;2023-07-13T15:16:53;26.10;76.70
10312;DHT22;5201;48.776;9.128;2023-07-13T15:19:19;26.10;75.50
10312;DHT22;5201;48.776;9.128;2023-07-13T15:21:46;26.20;75.80
10312;DHT22;5201;48.776;9.128;2023-07-13T15:24:13;26.30;76.30
10312;DHT22;5201;48.776;9.128;2023-07-13T15:26:39;26.20;77.00
10312;DHT22;5201;48.776;9.128;2023-07-13T15:29:05;26.20;76.80
10312;DHT22;5201;48.776;9.128;2023-07-13T15:31:32;26.20;76.20
10312;DHT22;5201;48.776;9.128;2023-07-13T15:33:59;26.20;75.80
10312;DHT22;5201;48.776;9.128;2023-07-13T15:36:26;26.10;75.10
10312;DHT22;5201;48.776;9.128;2023-07-13T15:38:53;26.00;75.30
10312;DHT22;5201;48.776;9.128;2023-07-13T15:41:23;25.90;76.80
10312;DHT22;5201;48.776;9.128;2023-07-13T15:43:50;25.90;76.00
10312;DHT22;5201;48.776;9.128;2023-07-13T15:46:18;25.90;77.20
10312;DHT22;5201;48.776;9.128;2023-07-13T15:48:45;25.90;75.90
10312;DHT22;5201;48.776;9.128;2023-07-13T15:51:34;25.90;76.00
10312;DHT22;5201;48.776;9.128;2023-07-13T15:54:00;26.00;75.90
10312;DHT22;5201;48.776;9.128;2023-07-13T15:56:34;26.00;75.40
10312;DHT22;5201;48.776;9.128;2023-07-13T15:59:00;26.00;75.20
10312;DHT22;5201;48.776;9.128;2023-07-13T16:01:26;26.00;75.10
10312;DHT22;5201;48.776;9.128;2023-07-13T16:03:52;26.00;74.10
10312;DHT22;5201;48.776;9.128;2023-07-13T16:06:20;25.90;76.20
10312;DHT22;5201;48.776;9.128;2023-07-13T16:08:48;25.90;77.40
10312;DHT22;5201;48.776;9.128;2023-07-13T16:11:26;25.90;74.80
10312;DHT22;5201;48.776;9.128;2023-07-13T16:13:52;25.80;75.70
10312;DHT22;5201;48.776;9.128;2023-07-13T16:16:30;25.70;76.10
10312;DHT22;5201;48.776;9.128;2023-07-13T16:18:57;25.60;75.70
10312;DHT22;5201;48.776;9.128;2023-07-13T16:21:25;25.60;75.40
10312;DHT22;5201;48.776;9.128;2023-07-13T16:23:52;25.60;76.10
10312;DHT22;5201;48.776;9.128;2023-07-13T16:26:38;25.50;77.50
10312;DHT22;5201;48.776;9.128;2023-07-13T16:29:22;25.50;75.50